createdAt,value
2022-12-04T00:01:15.829Z,13.85
2022-12-04T00:03:43.115Z,13.95
2022-12-04T00:06:18.992Z,13.23
2022-12-04T00:08:47.360Z,14.05
2022-12-04T00:11:17.339Z,14.95
2022-12-04T00:13:44.904Z,15.23
2022-12-04T00:16:14.355Z,11.77
2022-12-04T00:18:41.744Z,14.07
2022-12-04T00:21:11.462Z,15.07
2022-12-04T00:23:39.524Z,13.05
2022-12-04T00:26:10.998Z,14.13
2022-12-04T00:28:38.533Z,15.55
2022-12-04T00:31:27.377Z,14.25
2022-12-04T00:33:54.598Z,13.27
2022-12-04T00:36:24.621Z,12.52
2022-12-04T00:38:52.054Z,13.10
2022-12-04T00:41:22.978Z,13.45
2022-12-04T00:43:50.392Z,14.32
2022-12-04T00:46:17.784Z,22.75
2022-12-04T00:48:44.991Z,19.05
2022-12-04T00:51:15.365Z,15.45
2022-12-04T00:53:42.876Z,15.05
2022-12-04T00:56:13.644Z,18.33
2022-12-04T00:58:41.212Z,21.73
2022-12-04T01:01:12.410Z,17.02
2022-12-04T01:03:39.861Z,16.10
2022-12-04T01:06:08.150Z,15.15
2022-12-04T01:08:35.478Z,14.95
2022-12-04T01:11:06.355Z,14.88
2022-12-04T01:13:33.533Z,15.52
2022-12-04T01:16:00.700Z,15.32
2022-12-04T01:18:27.803Z,16.17
2022-12-04T01:20:54.987Z,14.02
2022-12-04T01:23:22.354Z,15.02
2022-12-04T01:25:53.931Z,14.07
2022-12-04T01:28:21.470Z,16.02
2022-12-04T01:31:19.414Z,13.85
2022-12-04T01:33:47.694Z,14.75
2022-12-04T01:36:18.778Z,15.50
2022-12-04T01:38:46.045Z,16.35
2022-12-04T01:41:15.292Z,14.52
2022-12-04T01:43:43.365Z,15.10
2022-12-04T01:46:10.955Z,15.75
2022-12-04T01:48:40.690Z,16.23
2022-12-04T01:51:17.992Z,13.52
2022-12-04T01:53:51.574Z,14.45
2022-12-04T01:56:22.851Z,14.93
2022-12-04T01:58:53.937Z,15.47
2022-12-04T02:01:21.525Z,15.05
2022-12-04T02:03:49.132Z,14.55
2022-12-04T02:06:16.266Z,15.65
2022-12-04T02:08:43.396Z,16.20
2022-12-04T02:11:20.214Z,15.75
2022-12-04T02:13:50.130Z,15.25
2022-12-04T02:16:49.767Z,16.73
2022-12-04T02:19:32.978Z,16.13
2022-12-04T02:22:03.537Z,15.85
2022-12-04T02:24:52.760Z,16.85
2022-12-04T02:27:38.602Z,15.30
2022-12-04T02:30:12.027Z,15.80
2022-12-04T02:32:51.478Z,15.48
2022-12-04T02:35:27.177Z,15.25
2022-12-04T02:38:11.960Z,15.88
2022-12-04T02:41:01.728Z,15.23
2022-12-04T02:43:40.440Z,15.27
2022-12-04T02:46:09.622Z,15.50
2022-12-04T02:48:43.043Z,14.27
2022-12-04T02:51:13.391Z,15.55
2022-12-04T02:53:45.784Z,13.93
2022-12-04T02:56:16.630Z,15.30
2022-12-04T02:59:06.352Z,15.27
2022-12-04T03:01:44.812Z,15.70
2022-12-04T03:04:23.395Z,16.33
2022-12-04T03:06:56.133Z,16.33
2022-12-04T03:09:39.116Z,14.85
2022-12-04T03:12:35.338Z,16.45
2022-12-04T03:15:34.244Z,14.45
2022-12-04T03:18:10.124Z,14.93
2022-12-04T03:20:38.778Z,16.33
2022-12-04T03:23:18.186Z,17.35
2022-12-04T03:25:58.723Z,17.30
2022-12-04T03:28:46.084Z,16.60
2022-12-04T03:31:16.623Z,17.52
2022-12-04T03:33:47.684Z,17.60
2022-12-04T03:36:25.372Z,17.25
2022-12-04T03:39:23.429Z,16.25
2022-12-04T03:42:01.805Z,19.00
2022-12-04T03:44:54.229Z,18.00
2022-12-04T03:47:57.623Z,17.73
2022-12-04T03:50:48.591Z,18.83
2022-12-04T03:53:24.618Z,18.02
2022-12-04T03:56:11.931Z,18.85
2022-12-04T03:58:44.509Z,18.00
2022-12-04T04:01:13.425Z,17.52
2022-12-04T04:03:49.958Z,20.38
2022-12-04T04:06:23.570Z,16.40
2022-12-04T04:08:55.612Z,17.70
2022-12-04T04:11:31.783Z,19.42
2022-12-04T04:14:45.833Z,17.90
2022-12-04T04:17:38.445Z,18.42
2022-12-04T04:20:42.003Z,16.55
2022-12-04T04:23:30.246Z,18.70
2022-12-04T04:25:59.977Z,19.45
2022-12-04T04:28:36.428Z,18.25
2022-12-04T04:31:30.335Z,19.23
2022-12-04T04:34:00.387Z,22.42
2022-12-04T04:36:40.412Z,20.63
2022-12-04T04:39:20.706Z,19.30
2022-12-04T04:41:57.813Z,19.00
2022-12-04T04:44:28.663Z,20.00
2022-12-04T04:47:02.052Z,19.70
2022-12-04T04:49:32.578Z,19.58
2022-12-04T04:52:01.170Z,19.55
2022-12-04T04:54:29.796Z,19.17
2022-12-04T04:56:56.902Z,19.23
2022-12-04T04:59:24.100Z,19.48
2022-12-04T05:01:51.246Z,19.80
2022-12-04T05:04:18.372Z,18.70
2022-12-04T05:06:45.547Z,19.77
2022-12-04T05:09:12.664Z,20.38
2022-12-04T05:11:39.851Z,23.63
2022-12-04T05:14:07.093Z,19.58
2022-12-04T05:16:34.375Z,21.60
2022-12-04T05:19:20.200Z,21.90
2022-12-04T05:21:47.353Z,20.27
2022-12-04T05:24:14.450Z,20.60
2022-12-04T05:26:41.654Z,20.17
2022-12-04T05:29:08.922Z,21.90
2022-12-04T05:31:36.150Z,20.70
2022-12-04T05:34:03.278Z,21.98
2022-12-04T05:36:30.350Z,21.05
2022-12-04T05:38:57.547Z,20.48
2022-12-04T05:41:24.651Z,20.65
2022-12-04T05:43:52.564Z,22.88
2022-12-04T05:46:19.676Z,21.98
2022-12-04T05:48:46.772Z,19.80
2022-12-04T05:51:13.990Z,20.40
2022-12-04T05:53:41.130Z,22.15
2022-12-04T05:56:08.680Z,19.95
2022-12-04T05:58:36.976Z,21.00
2022-12-04T06:01:18.097Z,19.15
2022-12-04T06:03:45.595Z,18.92
2022-12-04T06:06:21.842Z,19.90
2022-12-04T06:08:51.449Z,18.92
2022-12-04T06:11:23.219Z,17.85
2022-12-04T06:13:50.773Z,20.27
2022-12-04T06:16:21.019Z,19.27
2022-12-04T06:18:53.218Z,19.92
2022-12-04T06:21:22.002Z,20.73
2022-12-04T06:23:49.344Z,21.23
2022-12-04T06:26:16.557Z,21.20
2022-12-04T06:28:44.137Z,20.05
2022-12-04T06:31:14.463Z,18.88
2022-12-04T06:33:42.382Z,20.08
2022-12-04T06:36:14.269Z,19.75
2022-12-04T06:38:42.079Z,19.30
2022-12-04T06:41:12.687Z,21.73
2022-12-04T06:43:40.138Z,21.15
2022-12-04T06:46:22.147Z,20.95
2022-12-04T06:48:50.084Z,20.20
2022-12-04T06:51:23.962Z,19.67
2022-12-04T06:53:51.987Z,21.30
2022-12-04T06:56:22.289Z,19.35
2022-12-04T06:58:52.378Z,20.50
2022-12-04T07:01:22.428Z,17.50
2022-12-04T07:03:51.778Z,19.10
2022-12-04T07:06:46.746Z,21.02
2022-12-04T07:09:16.394Z,19.27
2022-12-04T07:11:45.438Z,19.75
2022-12-04T07:14:13.393Z,20.52
2022-12-04T07:16:42.250Z,17.90
2022-12-04T07:19:11.549Z,19.35
2022-12-04T07:21:38.698Z,20.23
2022-12-04T07:24:06.216Z,18.90
2022-12-04T07:26:33.466Z,18.77
2022-12-04T07:29:01.187Z,17.02
2022-12-04T07:31:29.786Z,19.90
2022-12-04T07:33:58.223Z,18.58
2022-12-04T07:36:26.243Z,17.38
2022-12-04T07:38:56.294Z,17.38
2022-12-04T07:41:23.479Z,17.70
2022-12-04T07:43:50.594Z,16.25
2022-12-04T07:46:24.738Z,17.67
2022-12-04T07:48:52.072Z,17.60
2022-12-04T07:51:22.679Z,16.52
2022-12-04T07:53:51.395Z,16.35
2022-12-04T07:56:19.361Z,17.17
2022-12-04T07:58:46.575Z,18.67
2022-12-04T08:01:16.544Z,17.38
2022-12-04T08:03:48.462Z,15.82
2022-12-04T08:06:17.904Z,16.80
2022-12-04T08:08:45.484Z,16.88
2022-12-04T08:11:15.119Z,15.68
2022-12-04T08:13:42.626Z,15.90
2022-12-04T08:16:11.663Z,15.88
2022-12-04T08:18:40.020Z,16.83
2022-12-04T08:21:16.145Z,16.05
2022-12-04T08:23:44.338Z,16.92
2022-12-04T08:26:12.470Z,16.63
2022-12-04T08:28:40.536Z,16.42
2022-12-04T08:31:17.812Z,15.18
2022-12-04T08:33:46.232Z,14.35
2022-12-04T08:36:15.958Z,14.68
2022-12-04T08:38:43.621Z,14.65
2022-12-04T08:41:13.431Z,16.50
2022-12-04T08:43:41.258Z,14.68
2022-12-04T08:46:11.303Z,14.23
2022-12-04T08:48:39.288Z,13.50
2022-12-04T08:51:08.319Z,14.55
2022-12-04T08:53:39.054Z,14.00
2022-12-04T08:56:06.576Z,13.10
2022-12-04T08:58:33.712Z,11.45
2022-12-04T09:01:10.640Z,12.70
2022-12-04T09:03:38.230Z,12.68
2022-12-04T09:06:06.274Z,11.95
2022-12-04T09:08:34.374Z,13.95
2022-12-04T09:11:10.379Z,13.07
2022-12-04T09:13:38.083Z,14.05
2022-12-04T09:16:08.819Z,12.48
2022-12-04T09:18:37.775Z,11.88
2022-12-04T09:21:11.202Z,12.20
2022-12-04T09:23:39.508Z,11.32
2022-12-04T09:26:18.586Z,13.45
2022-12-04T09:28:46.813Z,12.82
2022-12-04T09:31:13.964Z,13.25
2022-12-04T09:33:41.240Z,12.35
2022-12-04T09:36:08.618Z,12.40
2022-12-04T09:38:35.787Z,12.40
2022-12-04T09:41:37.038Z,12.30
2022-12-04T09:44:16.795Z,13.48
2022-12-04T09:47:04.954Z,13.38
2022-12-04T09:49:46.867Z,11.82
2022-12-04T09:52:57.857Z,13.50
2022-12-04T09:55:28.105Z,12.32
2022-12-04T09:58:02.108Z,11.95
2022-12-04T10:00:31.853Z,12.30
2022-12-04T10:03:05.873Z,13.63
2022-12-04T10:05:49.672Z,13.70
2022-12-04T10:08:40.960Z,13.55
2022-12-04T10:11:31.970Z,14.50
2022-12-04T10:14:05.819Z,14.53
2022-12-04T10:16:57.718Z,11.85
2022-12-04T10:19:43.759Z,13.32
2022-12-04T10:22:24.837Z,11.88
2022-12-04T10:25:14.707Z,14.07
2022-12-04T10:27:49.205Z,12.52
2022-12-04T10:30:27.476Z,15.05
2022-12-04T10:33:05.387Z,12.85
2022-12-04T10:35:35.421Z,13.60
2022-12-04T10:38:07.031Z,11.52
2022-12-04T10:40:49.082Z,13.75
2022-12-04T10:43:31.301Z,14.38
2022-12-04T10:45:59.046Z,12.45
2022-12-04T10:48:41.648Z,13.60
2022-12-04T10:51:17.629Z,14.93
2022-12-04T10:53:45.930Z,14.60
2022-12-04T10:56:19.317Z,15.48
2022-12-04T10:59:01.364Z,15.52
2022-12-04T11:01:30.791Z,16.95
2022-12-04T11:04:07.894Z,18.17
2022-12-04T11:06:35.975Z,16.60
2022-12-04T11:09:04.401Z,15.27
2022-12-04T11:11:35.598Z,15.82
2022-12-04T11:14:14.649Z,15.50
2022-12-04T11:16:48.401Z,16.15
2022-12-04T11:19:19.937Z,16.05
2022-12-04T11:21:47.712Z,15.05
2022-12-04T11:24:30.387Z,15.50
2022-12-04T11:26:58.439Z,13.95
2022-12-04T11:29:52.154Z,14.57
2022-12-04T11:32:33.658Z,13.52
2022-12-04T11:35:22.599Z,14.63
2022-12-04T11:38:00.234Z,12.50
2022-12-04T11:40:28.204Z,12.70
2022-12-04T11:43:13.197Z,13.23
2022-12-04T11:45:40.931Z,13.27
2022-12-04T11:48:18.293Z,13.27
2022-12-04T11:51:03.535Z,11.95
2022-12-04T11:53:44.500Z,13.40
2022-12-04T11:56:20.795Z,12.40
2022-12-04T11:59:04.871Z,11.90
2022-12-04T12:01:58.534Z,12.40
2022-12-04T12:04:47.587Z,12.20
2022-12-04T12:07:30.489Z,11.55
2022-12-04T12:10:09.963Z,11.55
2022-12-04T12:12:45.429Z,11.05
2022-12-04T12:15:31.129Z,12.15
2022-12-04T12:18:19.167Z,11.45
2022-12-04T12:21:06.060Z,11.23
2022-12-04T12:23:51.895Z,11.90
2022-12-04T12:26:19.477Z,12.60
2022-12-04T12:29:00.147Z,12.40
2022-12-04T12:32:08.643Z,11.55
2022-12-04T12:34:35.848Z,12.15
2022-12-04T12:37:11.555Z,12.60
2022-12-04T12:39:57.769Z,12.73
2022-12-04T12:42:36.352Z,12.57
2022-12-04T12:45:20.631Z,12.48
2022-12-04T12:47:52.709Z,14.45
2022-12-04T12:50:28.109Z,12.75
2022-12-04T12:53:17.223Z,10.57
2022-12-04T12:55:51.903Z,14.05
2022-12-04T12:58:32.685Z,12.30
2022-12-04T13:01:22.248Z,14.30
2022-12-04T13:04:13.132Z,15.52
2022-12-04T13:06:47.332Z,14.60
2022-12-04T13:09:20.835Z,14.85
2022-12-04T13:11:50.945Z,14.82
2022-12-04T13:14:18.109Z,14.32
2022-12-04T13:16:56.006Z,15.52
2022-12-04T13:19:25.611Z,15.65
2022-12-04T13:22:20.101Z,16.02
2022-12-04T13:25:10.580Z,13.73
2022-12-04T13:28:15.696Z,15.15
2022-12-04T13:31:03.142Z,13.30
2022-12-04T13:33:51.989Z,15.45
2022-12-04T13:36:38.560Z,14.70
2022-12-04T13:39:20.725Z,13.68
2022-12-04T13:41:56.371Z,13.82
2022-12-04T13:44:25.717Z,13.40
2022-12-04T13:47:03.350Z,14.88
2022-12-04T13:49:33.341Z,15.73
2022-12-04T13:52:02.677Z,17.05
2022-12-04T13:54:32.505Z,13.15
2022-12-04T13:57:15.077Z,13.73
2022-12-04T13:59:43.117Z,13.25
2022-12-04T14:02:38.424Z,13.82
2022-12-04T14:05:05.890Z,12.30
2022-12-04T14:07:34.704Z,11.55
2022-12-04T14:10:08.867Z,13.90
2022-12-04T14:12:40.890Z,12.57
2022-12-04T14:15:21.692Z,11.60
2022-12-04T14:18:05.379Z,13.10
2022-12-04T14:20:34.946Z,11.60
2022-12-04T14:23:27.602Z,13.82
2022-12-04T14:25:57.768Z,13.27
2022-12-04T14:28:27.724Z,12.55
2022-12-04T14:31:33.237Z,11.30
2022-12-04T14:34:21.688Z,12.55
2022-12-04T14:36:52.081Z,12.57
2022-12-04T14:39:30.185Z,12.48
2022-12-04T14:42:21.493Z,12.32
2022-12-04T14:44:57.363Z,13.15
2022-12-04T14:47:43.880Z,12.73
2022-12-04T14:50:40.756Z,12.30
2022-12-04T14:53:35.944Z,15.00
2022-12-04T14:56:21.160Z,13.13
2022-12-04T14:58:48.406Z,11.95
2022-12-04T15:01:36.178Z,15.73
2022-12-04T15:04:35.716Z,13.32
2022-12-04T15:07:02.979Z,12.27
2022-12-04T15:09:49.626Z,11.93
2022-12-04T15:12:36.509Z,13.70
2022-12-04T15:15:14.322Z,14.00
2022-12-04T15:17:41.646Z,13.82
2022-12-04T15:20:20.041Z,14.05
2022-12-04T15:22:47.635Z,13.77
2022-12-04T15:25:26.388Z,15.10
2022-12-04T15:28:00.675Z,14.07
2022-12-04T15:30:30.130Z,13.68
2022-12-04T15:32:57.871Z,13.75
2022-12-04T15:35:32.208Z,11.63
2022-12-04T15:37:59.850Z,11.57
2022-12-04T15:40:29.111Z,11.52
2022-12-04T15:43:13.885Z,11.80
2022-12-04T15:45:41.463Z,11.65
2022-12-04T15:48:09.861Z,12.63
2022-12-04T15:50:37.103Z,12.15
2022-12-04T15:53:14.518Z,11.10
2022-12-04T15:55:54.506Z,9.27
2022-12-04T15:58:23.317Z,12.30
2022-12-04T16:00:59.454Z,11.82
2022-12-04T16:03:33.124Z,10.32
2022-12-04T16:06:17.674Z,11.38
2022-12-04T16:08:50.679Z,10.35
2022-12-04T16:11:20.768Z,11.77
2022-12-04T16:13:50.511Z,15.88
2022-12-04T16:16:22.008Z,14.13
2022-12-04T16:18:49.356Z,12.65
2022-12-04T16:21:20.267Z,11.95
2022-12-04T16:23:47.372Z,12.32
2022-12-04T16:26:19.559Z,12.48
2022-12-04T16:31:17.666Z,12.15
2022-12-04T16:33:45.008Z,12.45
2022-12-04T16:36:12.225Z,13.63
2022-12-04T16:38:39.514Z,13.57
2022-12-04T16:41:07.603Z,12.38
2022-12-04T16:43:34.702Z,13.43
2022-12-04T16:46:01.914Z,12.68
2022-12-04T16:48:32.112Z,12.80
2022-12-04T16:50:59.263Z,13.15
2022-12-04T16:53:26.822Z,12.68
2022-12-04T16:55:53.939Z,13.93
2022-12-04T16:58:21.219Z,12.82
2022-12-04T17:00:55.110Z,12.10
2022-12-04T17:03:28.555Z,13.23
2022-12-04T17:05:56.415Z,16.63
2022-12-04T17:08:24.040Z,12.18
2022-12-04T17:10:52.097Z,12.07
2022-12-04T17:13:20.665Z,13.10
2022-12-04T17:15:48.510Z,13.70
2022-12-04T17:18:20.730Z,17.40
2022-12-04T17:20:48.798Z,11.52
2022-12-04T17:23:16.109Z,13.73
2022-12-04T17:25:43.614Z,12.60
2022-12-04T17:28:11.847Z,15.77
2022-12-04T17:30:39.073Z,14.95
2022-12-04T17:33:06.207Z,17.95
2022-12-04T17:35:33.263Z,13.18
2022-12-04T17:38:05.568Z,12.48
2022-12-04T17:40:33.643Z,12.35
2022-12-04T17:43:00.922Z,14.95
2022-12-04T17:45:28.693Z,13.45
2022-12-04T17:47:55.935Z,12.48
2022-12-04T17:50:23.170Z,14.57
2022-12-04T17:52:50.344Z,13.82
2022-12-04T17:55:17.632Z,13.15
2022-12-04T17:57:44.740Z,13.93
2022-12-04T18:00:12.391Z,13.50
2022-12-04T18:02:41.624Z,12.73
2022-12-04T18:05:10.044Z,14.70
2022-12-04T18:07:37.350Z,13.93
2022-12-04T18:10:05.128Z,14.00
2022-12-04T18:12:32.340Z,12.68
2022-12-04T18:14:59.495Z,12.10
2022-12-04T18:17:26.747Z,13.82
2022-12-04T18:19:54.099Z,13.23
2022-12-04T18:22:21.518Z,12.27
2022-12-04T18:24:49.759Z,12.63
2022-12-04T18:27:17.102Z,12.85
2022-12-04T18:29:44.340Z,13.00
2022-12-04T18:32:11.525Z,14.57
2022-12-04T18:34:38.699Z,13.77
2022-12-04T18:37:05.943Z,14.82
2022-12-04T18:39:33.117Z,14.35
2022-12-04T18:42:00.333Z,13.32
2022-12-04T18:44:27.536Z,12.60
2022-12-04T18:46:56.608Z,13.65
2022-12-04T18:49:23.762Z,14.18
2022-12-04T18:51:50.835Z,13.82
2022-12-04T18:54:20.626Z,13.75
2022-12-04T18:56:47.815Z,12.63
2022-12-04T18:59:21.343Z,13.70
2022-12-04T19:01:52.281Z,13.38
2022-12-04T19:04:22.105Z,14.85
2022-12-04T19:06:55.014Z,14.75
2022-12-04T19:12:15.978Z,15.40
2022-12-04T19:14:46.001Z,14.10
2022-12-04T19:17:13.329Z,13.48
2022-12-04T19:19:40.682Z,13.20
2022-12-04T19:22:07.900Z,13.98
2022-12-04T19:24:35.003Z,13.93
2022-12-04T19:27:09.993Z,12.63
2022-12-04T19:29:38.608Z,14.25
2022-12-04T19:32:06.466Z,13.60
2022-12-04T19:34:33.673Z,13.57
2022-12-04T19:37:00.876Z,13.10
2022-12-04T19:39:28.180Z,12.25
2022-12-04T19:41:55.352Z,12.25
2022-12-04T19:47:09.799Z,13.13
2022-12-04T19:49:36.952Z,12.60
2022-12-04T19:52:04.504Z,12.32
2022-12-04T19:54:31.699Z,11.23
2022-12-04T19:56:58.843Z,12.50
2022-12-04T19:59:27.156Z,11.75
2022-12-04T20:01:56.843Z,13.15
2022-12-04T20:04:24.164Z,11.50
2022-12-04T20:06:51.452Z,11.73
2022-12-04T20:09:20.988Z,10.70
2022-12-04T20:11:49.520Z,13.23
2022-12-04T20:14:16.893Z,15.63
2022-12-04T20:16:44.143Z,19.40
2022-12-04T20:19:14.791Z,13.32
2022-12-04T20:21:42.696Z,10.43
2022-12-04T20:24:12.723Z,10.85
2022-12-04T20:26:41.680Z,12.80
2022-12-04T20:29:12.908Z,11.98
2022-12-04T20:31:42.966Z,11.57
2022-12-04T20:34:18.633Z,12.52
2022-12-04T20:36:47.621Z,11.82
2022-12-04T20:39:16.126Z,11.27
2022-12-04T20:41:43.344Z,13.00
2022-12-04T20:44:14.958Z,12.60
2022-12-04T20:46:42.853Z,11.95
2022-12-04T20:49:21.049Z,14.18
2022-12-04T20:51:49.807Z,12.10
2022-12-04T20:54:19.289Z,12.40
2022-12-04T20:56:48.796Z,12.57
2022-12-04T20:59:17.978Z,11.82
2022-12-04T21:01:45.775Z,12.73
2022-12-04T21:04:13.423Z,13.43
2022-12-04T21:06:41.326Z,13.60
2022-12-04T21:09:12.636Z,13.75
2022-12-04T21:11:43.194Z,12.23
2022-12-04T21:14:35.341Z,12.88
2022-12-04T21:17:03.073Z,13.20
2022-12-04T21:19:30.519Z,15.32
2022-12-04T21:21:57.752Z,15.02
2022-12-04T21:24:26.697Z,13.25
2022-12-04T21:26:54.911Z,13.68
2022-12-04T21:29:22.812Z,14.25
2022-12-04T21:31:50.096Z,13.60
2022-12-04T21:34:18.047Z,13.68
2022-12-04T21:36:46.608Z,13.32
2022-12-04T21:39:15.347Z,13.93
2022-12-04T21:42:00.867Z,13.40
2022-12-04T21:44:28.022Z,14.43
2022-12-04T21:46:55.432Z,13.82
2022-12-04T21:49:22.625Z,14.95
2022-12-04T21:51:58.433Z,13.85
2022-12-04T21:54:27.809Z,15.68
2022-12-04T21:56:56.913Z,26.63
2022-12-04T21:59:25.481Z,21.38
2022-12-04T22:01:53.668Z,17.70
2022-12-04T22:04:21.701Z,19.40
2022-12-04T22:06:49.235Z,16.08
2022-12-04T22:09:16.706Z,13.93
2022-12-04T22:11:44.704Z,14.00
2022-12-04T22:14:12.488Z,14.75
2022-12-04T22:16:42.713Z,14.30
2022-12-04T22:19:12.055Z,15.27
2022-12-04T22:21:39.871Z,13.82
2022-12-04T22:24:07.602Z,15.27
2022-12-04T22:26:34.902Z,14.85
2022-12-04T22:29:11.218Z,15.02
2022-12-04T22:31:49.724Z,13.48
2022-12-04T22:34:17.465Z,14.77
2022-12-04T22:36:44.784Z,14.05
2022-12-04T22:39:12.184Z,14.45
2022-12-04T22:41:39.347Z,13.95
2022-12-04T22:44:06.572Z,14.40
2022-12-04T22:46:34.320Z,13.80
2022-12-04T22:49:01.525Z,13.77
2022-12-04T22:51:29.487Z,13.55
2022-12-04T22:53:58.156Z,14.75
2022-12-04T22:56:28.501Z,15.77
2022-12-04T22:58:57.930Z,14.77
2022-12-04T23:01:34.035Z,15.32
2022-12-04T23:04:02.810Z,15.02
2022-12-04T23:06:31.296Z,15.90
2022-12-04T23:09:01.785Z,15.40
2022-12-04T23:11:29.427Z,16.02
2022-12-04T23:14:00.485Z,15.77
2022-12-04T23:16:32.611Z,16.30
2022-12-04T23:19:00.088Z,17.15
2022-12-04T23:21:28.025Z,17.95
2022-12-04T23:23:56.133Z,15.63
2022-12-04T23:26:30.329Z,15.27
2022-12-04T23:28:58.512Z,17.30
2022-12-04T23:31:25.810Z,16.20
2022-12-04T23:33:53.119Z,15.65
2022-12-04T23:36:20.947Z,16.17
2022-12-04T23:38:48.405Z,18.38
2022-12-04T23:41:18.859Z,15.32
2022-12-04T23:43:47.253Z,17.95
2022-12-04T23:46:16.684Z,17.25
2022-12-04T23:48:45.212Z,17.48
2022-12-04T23:51:17.265Z,20.20
2022-12-04T23:53:45.760Z,17.42
2022-12-04T23:56:17.388Z,16.33
2022-12-04T23:58:46.448Z,16.40
